Time;durP1;ratioP1;P1;durP2;ratioP2;P2;SDS_P1;SDS_P2;PMS_P1;PMS_P2;Temp;Humidity;BMP_temperature;BMP_pressure;BME280_temperature;BME280_humidity;BME280_pressure;Samples;Min_cycle;Max_cycle;Signal;HPM_P1;HPM_P2
2022/03/08 00:01:28;;;;;;;13.17;5.03;;;-1.10;99.90;;;;;;4956526;28;20049;-84
2022/03/08 00:03:54;;;;;;;13.93;5.53;;;-1.10;99.90;;;;;;4956851;28;20081;-84
2022/03/08 00:06:20;;;;;;;14.13;6.07;;;-1.10;99.90;;;;;;4956716;28;20061;-84
2022/03/08 00:08:46;;;;;;;13.67;5.87;;;-1.20;99.90;;;;;;4956384;28;20042;-84
2022/03/08 00:11:12;;;;;;;15.27;6.23;;;-1.00;99.90;;;;;;4956746;28;20525;-84
2022/03/08 00:13:37;;;;;;;14.00;5.43;;;-1.20;99.90;;;;;;4956700;28;20050;-84
2022/03/08 00:16:03;;;;;;;13.40;5.27;;;-1.20;99.90;;;;;;4956464;28;20092;-84
2022/03/08 00:18:30;;;;;;;17.17;5.70;;;-1.30;99.90;;;;;;4956807;28;20055;-84
2022/03/08 00:20:55;;;;;;;13.67;5.30;;;-1.40;99.90;;;;;;4956780;28;20116;-84
2022/03/08 00:23:21;;;;;;;14.20;5.77;;;-1.40;99.90;;;;;;4955644;28;20125;-84
2022/03/08 00:25:46;;;;;;;15.73;5.57;;;-1.40;99.90;;;;;;4956000;28;20487;-84
2022/03/08 00:28:12;;;;;;;15.37;5.73;;;-1.40;99.90;;;;;;4956338;28;20046;-84
2022/03/08 00:30:38;;;;;;;14.33;5.90;;;-1.40;99.90;;;;;;4973453;28;20051;-84
2022/03/08 00:33:04;;;;;;;14.03;5.73;;;-1.40;99.90;;;;;;4956161;28;20062;-84
2022/03/08 00:35:29;;;;;;;18.17;6.13;;;-1.40;99.90;;;;;;4956891;28;20054;-84
2022/03/08 00:37:59;;;;;;;14.83;6.03;;;-1.40;99.90;;;;;;4956406;28;20129;-84
2022/03/08 00:40:25;;;;;;;15.10;6.03;;;-1.40;99.90;;;;;;4956450;28;20046;-84
2022/03/08 00:42:51;;;;;;;16.00;6.63;;;-1.30;99.90;;;;;;4956778;28;20471;-83
2022/03/08 00:45:17;;;;;;;15.77;6.47;;;-1.40;99.90;;;;;;4955692;28;20382;-84
2022/03/08 00:47:43;;;;;;;14.17;5.80;;;-1.40;99.90;;;;;;4956950;28;20494;-84
2022/03/08 00:50:12;;;;;;;15.20;5.67;;;-1.40;99.90;;;;;;4956508;28;20070;-84
2022/03/08 00:52:38;;;;;;;15.13;6.80;;;-1.40;99.90;;;;;;4957951;28;20043;-84
2022/03/08 00:55:06;;;;;;;15.67;6.40;;;-1.50;99.90;;;;;;4960436;28;20045;-83
2022/03/08 00:57:31;;;;;;;14.73;6.33;;;-1.50;99.90;;;;;;4960296;28;20054;-84
2022/03/08 00:59:57;;;;;;;14.53;5.93;;;-1.50;99.90;;;;;;4977866;28;20508;-83
2022/03/08 01:02:23;;;;;;;14.03;6.20;;;-1.60;99.90;;;;;;4960333;28;20134;-84
2022/03/08 01:04:48;;;;;;;15.50;6.33;;;-1.60;99.90;;;;;;4960264;28;20504;-84
2022/03/08 01:07:14;;;;;;;15.67;6.30;;;-1.70;99.90;;;;;;4960660;28;20043;-84
2022/03/08 01:09:40;;;;;;;14.47;6.13;;;-1.70;99.90;;;;;;4960500;28;20471;-84
2022/03/08 01:12:06;;;;;;;15.83;6.40;;;-1.70;99.90;;;;;;4959118;28;20050;-84
2022/03/08 01:14:32;;;;;;;17.27;6.97;;;-1.70;99.90;;;;;;4959663;28;20077;-84
2022/03/08 01:16:57;;;;;;;17.00;7.30;;;-1.70;99.90;;;;;;4960035;28;20071;-83
2022/03/08 01:19:23;;;;;;;17.67;7.27;;;-1.70;99.90;;;;;;4959171;28;20066;-83
2022/03/08 01:21:49;;;;;;;14.73;6.63;;;-1.70;99.90;;;;;;4959800;28;20055;-83
2022/03/08 01:24:15;;;;;;;16.40;6.97;;;-1.50;99.90;;;;;;4959637;28;20039;-84
2022/03/08 01:26:41;;;;;;;16.20;6.97;;;-1.70;99.90;;;;;;4959477;28;20122;-83
2022/03/08 01:29:06;;;;;;;17.17;7.07;;;-1.80;99.90;;;;;;4959399;28;20046;-84
2022/03/08 01:31:32;;;;;;;17.37;6.80;;;-1.70;99.90;;;;;;4959718;28;20617;-84
2022/03/08 01:33:58;;;;;;;15.70;6.63;;;-1.80;99.90;;;;;;4959348;28;20066;-83
2022/03/08 01:36:25;;;;;;;16.67;7.67;;;-1.80;99.90;;;;;;4960038;28;20129;-83
2022/03/08 01:38:51;;;;;;;19.83;7.77;;;-1.80;99.90;;;;;;4960164;28;20060;-83
2022/03/08 01:41:18;;;;;;;16.87;7.30;;;-1.80;99.90;;;;;;4958783;28;20051;-83
2022/03/08 01:43:45;;;;;;;15.83;7.17;;;-1.80;99.90;;;;;;4959663;28;20093;-83
2022/03/08 01:46:12;;;;;;;17.10;6.90;;;-1.80;99.90;;;;;;4959511;28;20051;-83
2022/03/08 01:48:39;;;;;;;15.80;7.07;;;-1.80;99.90;;;;;;4959200;28;20526;-83
2022/03/08 01:51:06;;;;;;;17.10;7.77;;;-1.80;99.90;;;;;;4947646;29;20039;-83
2022/03/08 01:53:33;;;;;;;16.37;7.00;;;-1.80;99.90;;;;;;4940243;29;20138;-83
2022/03/08 01:55:59;;;;;;;17.27;6.93;;;-1.80;99.90;;;;;;4939364;29;20134;-84
2022/03/08 01:58:25;;;;;;;17.43;7.47;;;-1.70;99.90;;;;;;4939572;29;20134;-83
2022/03/08 02:00:50;;;;;;;16.80;7.73;;;-1.80;99.90;;;;;;4939204;29;20048;-83
2022/03/08 02:03:16;;;;;;;18.50;8.13;;;-1.80;99.90;;;;;;4938699;29;20126;-83
2022/03/08 02:05:42;;;;;;;15.97;6.97;;;-1.80;99.90;;;;;;4939928;29;20492;-83
2022/03/08 02:08:07;;;;;;;17.30;7.47;;;-1.80;99.90;;;;;;4938990;29;20043;-83
2022/03/08 02:10:33;;;;;;;16.60;7.03;;;-1.80;99.90;;;;;;4940248;29;20113;-83
2022/03/08 02:12:59;;;;;;;18.57;7.93;;;-1.70;99.90;;;;;;4939536;29;20484;-83
2022/03/08 02:15:27;;;;;;;19.07;7.60;;;-1.80;99.90;;;;;;4939145;29;20115;-83
2022/03/08 02:17:55;;;;;;;16.03;7.53;;;-1.80;99.90;;;;;;4939828;29;20122;-83
2022/03/08 02:20:21;;;;;;;16.97;7.33;;;-1.80;99.90;;;;;;4939296;29;20515;-83
2022/03/08 02:22:48;;;;;;;17.53;7.47;;;-1.70;99.90;;;;;;4938862;29;20102;-83
2022/03/08 02:25:15;;;;;;;15.97;7.27;;;-1.70;99.90;;;;;;4939304;29;20099;-83
2022/03/08 02:27:46;;;;;;;18.33;7.87;;;-1.60;99.90;;;;;;4939202;29;20067;-83
2022/03/08 02:30:14;;;;;;;17.70;7.57;;;-1.50;99.90;;;;;;4938520;29;20472;-84
2022/03/08 02:32:41;;;;;;;16.80;7.53;;;-1.60;99.90;;;;;;4939487;29;20051;-83
2022/03/08 02:35:07;;;;;;;18.73;7.67;;;-1.50;99.90;;;;;;4939289;29;20079;-83
2022/03/08 02:37:38;;;;;;;18.03;7.73;;;-1.50;99.90;;;;;;4938705;29;20074;-83
2022/03/08 02:40:05;;;;;;;19.20;8.20;;;-1.50;99.90;;;;;;4938960;29;20055;-83
2022/03/08 02:42:30;;;;;;;18.20;8.37;;;-1.60;99.90;;;;;;4939391;29;20259;-83
2022/03/08 02:44:56;;;;;;;21.20;8.83;;;-1.60;99.90;;;;;;4938421;29;20135;-83
2022/03/08 02:47:21;;;;;;;18.03;7.57;;;-1.50;99.90;;;;;;4938935;29;20407;-83
2022/03/08 02:49:47;;;;;;;16.50;7.53;;;-1.50;99.90;;;;;;4940915;29;20163;-84
2022/03/08 02:52:12;;;;;;;16.83;7.47;;;-1.50;99.90;;;;;;4940541;29;20074;-83
2022/03/08 02:54:38;;;;;;;18.60;8.30;;;-1.50;99.90;;;;;;4939487;29;20047;-83
2022/03/08 02:57:04;;;;;;;19.23;8.20;;;-1.50;99.90;;;;;;4938539;29;20078;-83
2022/03/08 02:59:29;;;;;;;19.40;8.50;;;-1.50;99.90;;;;;;4938820;29;20043;-83
2022/03/08 03:01:55;;;;;;;20.10;7.83;;;-1.30;99.90;;;;;;4938350;29;20061;-83
2022/03/08 03:04:20;;;;;;;19.73;8.67;;;-1.50;99.90;;;;;;4937069;29;20082;-83
2022/03/08 03:06:46;;;;;;;18.83;8.67;;;-1.60;99.90;;;;;;4939234;29;20054;-84
2022/03/08 03:09:12;;;;;;;19.63;8.90;;;-1.40;99.90;;;;;;4938241;29;20039;-83
2022/03/08 03:11:37;;;;;;;19.03;8.20;;;-1.50;99.90;;;;;;4937462;29;20049;-83
2022/03/08 03:14:03;;;;;;;18.43;8.87;;;-1.40;99.90;;;;;;4938508;28;20475;-83
2022/03/08 03:16:29;;;;;;;20.13;8.80;;;-0.40;99.90;;;;;;4938461;29;20487;-83
2022/03/08 03:18:54;;;;;;;18.40;9.00;;;-1.40;99.90;;;;;;4938300;29;20043;-83
2022/03/08 03:21:20;;;;;;;18.33;9.30;;;-1.40;99.90;;;;;;4938464;29;20051;-83
2022/03/08 03:23:45;;;;;;;20.47;8.90;;;-1.40;99.90;;;;;;4938494;29;20047;-83
2022/03/08 03:26:11;;;;;;;20.20;8.67;;;-1.10;99.90;;;;;;4937750;29;20198;-83
2022/03/08 03:28:36;;;;;;;21.27;8.80;;;-1.40;99.90;;;;;;4938221;29;20051;-83
2022/03/08 03:31:02;;;;;;;21.77;9.27;;;-1.20;99.90;;;;;;4938382;29;20066;-83
2022/03/08 03:33:28;;;;;;;23.73;8.97;;;-1.50;99.90;;;;;;4937466;29;20109;-83
2022/03/08 03:35:53;;;;;;;19.80;8.80;;;-1.60;99.90;;;;;;4938708;29;20380;-83
2022/03/08 03:38:19;;;;;;;19.47;8.97;;;-1.60;99.90;;;;;;4955238;29;20055;-83
2022/03/08 03:40:44;;;;;;;19.20;8.60;;;-1.70;99.90;;;;;;4937803;29;20187;-83
2022/03/08 03:43:11;;;;;;;18.13;8.73;;;-1.70;99.90;;;;;;4938020;29;20098;-83
2022/03/08 03:45:37;;;;;;;20.50;9.17;;;-1.80;99.90;;;;;;4938736;29;20554;-83
2022/03/08 03:48:03;;;;;;;19.70;8.47;;;-1.80;99.90;;;;;;4937836;29;20047;-83
2022/03/08 03:50:28;;;;;;;20.67;9.17;;;-1.80;99.90;;;;;;4938169;29;20074;-83
2022/03/08 03:52:54;;;;;;;20.80;9.27;;;-1.80;99.90;;;;;;4938188;29;20058;-83
2022/03/08 03:55:20;;;;;;;19.70;8.93;;;-1.80;99.90;;;;;;4954815;29;20054;-83
2022/03/08 03:57:46;;;;;;;22.70;9.47;;;-1.90;99.90;;;;;;4938403;29;20039;-83
2022/03/08 04:00:13;;;;;;;21.87;9.87;;;-1.90;99.90;;;;;;4937763;29;20526;-83
2022/03/08 04:02:39;;;;;;;20.90;8.93;;;-1.90;99.90;;;;;;4937958;29;20055;-82
2022/03/08 04:05:06;;;;;;;24.50;10.10;;;-1.90;99.90;;;;;;4937825;29;20377;-83
2022/03/08 04:07:32;;;;;;;22.17;9.77;;;-1.90;99.90;;;;;;4937008;29;20046;-83
2022/03/08 04:09:57;;;;;;;21.87;10.03;;;-1.90;99.90;;;;;;4937892;29;20054;-83
2022/03/08 04:12:23;;;;;;;20.33;9.60;;;-1.90;99.90;;;;;;4937547;29;20599;-83
2022/03/08 04:14:48;;;;;;;22.07;9.87;;;-2.00;99.90;;;;;;4937315;29;20376;-82
2022/03/08 04:17:14;;;;;;;21.47;9.77;;;-2.00;99.90;;;;;;4937685;29;20515;-83
2022/03/08 04:19:40;;;;;;;20.97;9.30;;;-2.00;99.90;;;;;;4938098;29;20051;-83
2022/03/08 04:22:06;;;;;;;22.37;9.93;;;-2.10;99.90;;;;;;4936575;29;20067;-83
2022/03/08 04:24:32;;;;;;;21.07;9.93;;;-2.00;99.90;;;;;;4937933;29;20488;-83
2022/03/08 04:26:58;;;;;;;25.93;9.83;;;-2.00;99.90;;;;;;4937124;29;20066;-83
2022/03/08 04:29:24;;;;;;;23.13;10.33;;;-1.90;99.90;;;;;;4936269;29;20423;-83
2022/03/08 04:31:49;;;;;;;21.50;10.30;;;-2.10;99.90;;;;;;4937368;29;20062;-83
2022/03/08 04:34:15;;;;;;;23.83;10.87;;;-2.10;99.90;;;;;;4937041;29;20047;-83
2022/03/08 04:36:41;;;;;;;21.43;9.87;;;-2.10;99.90;;;;;;4936833;29;20055;-82
2022/03/08 04:39:06;;;;;;;22.10;10.43;;;-2.10;99.90;;;;;;4937012;29;20043;-83
2022/03/08 04:41:32;;;;;;;26.73;11.33;;;-2.10;99.90;;;;;;4937466;29;20057;-83
2022/03/08 04:43:58;;;;;;;21.83;10.07;;;-2.10;99.90;;;;;;4936637;29;20051;-82
2022/03/08 04:46:24;;;;;;;22.70;10.40;;;-2.10;99.90;;;;;;4937084;29;20055;-83
2022/03/08 04:48:50;;;;;;;21.57;10.57;;;-2.10;99.90;;;;;;4937611;29;20455;-82
2022/03/08 04:51:15;;;;;;;25.70;12.20;;;-2.00;99.90;;;;;;4936371;29;20043;-83
2022/03/08 04:53:42;;;;;;;23.57;10.97;;;-2.00;99.90;;;;;;4937142;29;20106;-83
2022/03/08 04:56:08;;;;;;;25.13;11.17;;;-2.00;99.90;;;;;;4936977;29;20099;-82
2022/03/08 04:58:33;;;;;;;23.73;11.07;;;-2.00;99.90;;;;;;4936402;29;20051;-83
2022/03/08 05:00:59;;;;;;;23.83;11.13;;;-2.00;99.90;;;;;;4932812;29;20377;-82
2022/03/08 05:03:25;;;;;;;22.47;11.20;;;-2.00;99.90;;;;;;4935893;28;20082;-83
2022/03/08 05:05:50;;;;;;;23.43;11.30;;;-2.00;99.90;;;;;;4954646;28;20055;-82
2022/03/08 05:08:16;;;;;;;22.30;10.33;;;-1.90;99.90;;;;;;4955734;28;20046;-82
2022/03/08 05:10:42;;;;;;;22.63;10.30;;;-2.00;99.90;;;;;;4955623;28;20469;-82
2022/03/08 05:13:08;;;;;;;21.50;10.50;;;-1.90;99.90;;;;;;4972966;28;20130;-83
2022/03/08 05:15:33;;;;;;;24.87;11.20;;;-1.70;99.90;;;;;;4956245;28;20134;-83
2022/03/08 05:17:59;;;;;;;23.80;11.00;;;-2.00;99.90;;;;;;4955566;28;20226;-83
2022/03/08 05:20:25;;;;;;;23.70;11.43;;;-2.00;99.90;;;;;;4956265;28;20042;-83
2022/03/08 05:22:50;;;;;;;21.10;10.93;;;-2.10;99.90;;;;;;4956819;28;20603;-82
2022/03/08 05:25:16;;;;;;;23.03;10.70;;;-2.10;99.90;;;;;;4955211;28;20094;-83
2022/03/08 05:27:42;;;;;;;24.97;11.87;;;-2.00;99.90;;;;;;4973522;28;20057;-83
2022/03/08 05:30:09;;;;;;;23.37;11.73;;;-2.00;99.90;;;;;;4955977;28;20058;-82
2022/03/08 05:32:34;;;;;;;24.53;11.10;;;-2.00;99.90;;;;;;4972675;28;20047;-83
2022/03/08 05:35:00;;;;;;;24.97;10.87;;;-1.90;99.90;;;;;;4955957;28;20093;-82
2022/03/08 05:37:25;;;;;;;25.10;11.67;;;-2.00;99.90;;;;;;4956315;28;20046;-82
2022/03/08 05:39:51;;;;;;;24.50;12.13;;;-2.00;99.90;;;;;;4958711;28;20083;-82
2022/03/08 05:42:16;;;;;;;26.90;11.40;;;-2.00;99.90;;;;;;4959282;28;20042;-83
2022/03/08 05:44:42;;;;;;;26.30;12.10;;;-2.00;99.90;;;;;;4959623;28;20050;-82
2022/03/08 05:47:08;;;;;;;25.20;11.57;;;-2.00;99.90;;;;;;4958555;28;20061;-83
2022/03/08 05:49:34;;;;;;;27.37;12.03;;;-2.00;99.90;;;;;;4959358;28;20043;-83
2022/03/08 05:51:59;;;;;;;26.87;11.97;;;-2.00;99.90;;;;;;4959605;28;20304;-83
2022/03/08 05:54:26;;;;;;;28.17;12.17;;;-2.00;99.90;;;;;;4958582;28;20046;-83
2022/03/08 05:56:51;;;;;;;30.23;12.13;;;-2.00;99.90;;;;;;4959251;28;20519;-83
2022/03/08 05:59:17;;;;;;;25.50;11.77;;;-1.90;99.90;;;;;;4959007;28;20054;-82
2022/03/08 06:01:42;;;;;;;25.43;11.90;;;-1.90;99.90;;;;;;4958142;28;20057;-83
2022/03/08 06:04:08;;;;;;;26.63;12.37;;;-1.90;99.90;;;;;;4958719;28;20039;-83
2022/03/08 06:06:34;;;;;;;29.53;12.13;;;-1.90;99.90;;;;;;4972118;28;20459;-84
2022/03/08 06:09:05;;;;;;;23.30;11.87;;;-1.80;99.90;;;;;;4939428;29;20039;-87
2022/03/08 06:11:30;;;;;;;30.23;12.23;;;-0.30;99.90;;;;;;4939819;29;20051;-86
2022/03/08 06:13:59;;;;;;;23.77;11.57;;;-1.80;99.90;;;;;;4939643;29;20051;-87
2022/03/08 06:16:36;;;;;;;25.03;11.50;;;-2.50;99.90;;;;;;4939595;29;20043;-88
2022/03/08 06:19:05;;;;;;;25.23;12.23;;;-1.70;99.90;;;;;;4939913;29;20043;-86
2022/03/08 06:21:40;;;;;;;24.83;11.63;;;-1.80;99.90;;;;;;4939859;29;20538;-86
2022/03/08 06:24:18;;;;;;;25.53;12.13;;;-1.90;99.90;;;;;;4940024;29;20051;-87
2022/03/08 06:26:53;;;;;;;24.50;10.80;;;-2.10;99.90;;;;;;4939840;29;20051;-87
2022/03/08 06:29:34;;;;;;;25.73;11.23;;;-1.90;99.90;;;;;;4939063;29;20477;-88
2022/03/08 06:32:15;;;;;;;21.43;11.17;;;-1.50;99.90;;;;;;4940447;29;20109;-87
2022/03/08 06:34:51;;;;;;;24.70;12.03;;;-0.50;99.90;;;;;;4940434;29;20480;-87
2022/03/08 06:37:21;;;;;;;24.17;11.10;;;-0.80;99.90;;;;;;4939301;29;20055;-85
2022/03/08 06:39:55;;;;;;;26.67;11.50;;;-1.30;99.90;;;;;;4939547;29;20051;-86
2022/03/08 06:42:21;;;;;;;23.93;11.63;;;-1.70;99.90;;;;;;4938255;29;20074;-86
2022/03/08 06:44:52;;;;;;;24.63;11.70;;;-0.90;99.90;;;;;;4939364;29;20411;-86
2022/03/08 06:47:18;;;;;;;25.23;11.43;;;-1.20;99.90;;;;;;4939145;29;20043;-85
2022/03/08 06:49:53;;;;;;;24.83;11.60;;;-1.70;99.90;;;;;;4938036;29;20059;-86
2022/03/08 06:52:18;;;;;;;24.60;10.90;;;-1.50;99.90;;;;;;4938560;29;20047;-85
2022/03/08 06:54:44;;;;;;;27.73;11.33;;;-1.40;99.90;;;;;;4938904;29;20053;-85
2022/03/08 06:57:09;;;;;;;20.80;11.20;;;-0.90;99.90;;;;;;4938364;29;20039;-85
2022/03/08 06:59:35;;;;;;;23.13;11.50;;;-0.20;99.90;;;;;;4956450;29;20047;-87
2022/03/08 07:02:10;;;;;;;22.40;11.20;;;-1.20;99.90;;;;;;4939437;29;20522;-89
2022/03/08 07:04:36;;;;;;;22.07;10.50;;;-0.20;99.90;;;;;;4939142;29;20059;-86
2022/03/08 07:07:07;;;;;;;23.60;11.07;;;-1.10;99.90;;;;;;4939019;29;20496;-86
2022/03/08 07:09:33;;;;;;;23.97;10.97;;;-0.90;99.90;;;;;;4939076;29;20059;-86
2022/03/08 07:11:58;;;;;;;25.33;11.43;;;-0.20;99.90;;;;;;4938072;29;20060;-86
2022/03/08 07:14:30;;;;;;;21.87;11.70;;;-0.70;99.90;;;;;;4938458;29;20048;-86
2022/03/08 07:16:56;;;;;;;22.27;11.00;;;-0.40;99.90;;;;;;4938784;29;20130;-85
2022/03/08 07:19:21;;;;;;;22.20;10.60;;;-0.60;99.90;;;;;;4955202;29;20047;-85
2022/03/08 07:21:47;;;;;;;21.00;10.57;;;-0.40;99.90;;;;;;4938948;29;20047;-85
2022/03/08 07:24:14;;;;;;;20.87;10.57;;;-0.50;99.90;;;;;;4938405;29;20057;-86
2022/03/08 07:26:40;;;;;;;21.10;10.60;;;-0.30;99.90;;;;;;4956445;29;20057;-87
2022/03/08 07:29:06;;;;;;;22.87;11.20;;;-0.20;99.90;;;;;;4938315;29;20051;-86
2022/03/08 07:31:32;;;;;;;22.67;10.93;;;-0.20;99.90;;;;;;4937946;29;20055;-87
2022/03/08 07:33:58;;;;;;;22.67;11.30;;;0.00;99.90;;;;;;4938714;29;20450;-86
2022/03/08 07:36:23;;;;;;;22.70;10.67;;;0.10;99.90;;;;;;4938218;29;20497;-85
2022/03/08 07:38:49;;;;;;;23.30;10.43;;;0.20;99.90;;;;;;4937861;29;20051;-84
2022/03/08 07:41:15;;;;;;;19.77;10.00;;;0.20;99.90;;;;;;4938014;29;20043;-84
2022/03/08 07:43:40;;;;;;;20.63;10.80;;;0.40;99.90;;;;;;4938298;29;20051;-84
2022/03/08 07:46:08;;;;;;;21.67;10.37;;;0.40;99.90;;;;;;4937117;29;20402;-85
2022/03/08 07:48:34;;;;;;;21.53;10.60;;;0.50;99.90;;;;;;4938118;29;20051;-85
2022/03/08 07:51:00;;;;;;;19.93;10.07;;;0.60;99.90;;;;;;4938027;29;20043;-85
2022/03/08 07:53:26;;;;;;;18.53;9.63;;;0.60;99.90;;;;;;4954015;28;20110;-84
2022/03/08 07:55:52;;;;;;;20.73;10.27;;;0.70;99.90;;;;;;4938094;29;20050;-85
2022/03/08 07:58:17;;;;;;;20.07;10.40;;;2.10;99.90;;;;;;4937476;29;20463;-84
2022/03/08 08:00:43;;;;;;;21.07;10.90;;;1.00;99.90;;;;;;4953591;28;20066;-82
2022/03/08 08:03:09;;;;;;;19.30;9.73;;;1.10;99.90;;;;;;4954461;29;20043;-84
2022/03/08 08:05:36;;;;;;;20.43;10.40;;;1.20;99.90;;;;;;4955234;29;20039;-83
2022/03/08 08:08:03;;;;;;;20.17;10.10;;;1.30;99.90;;;;;;4954609;29;20043;-84
2022/03/08 08:10:29;;;;;;;20.23;10.00;;;1.40;99.90;;;;;;4939793;29;20047;-85
2022/03/08 08:12:54;;;;;;;21.03;10.33;;;1.40;99.90;;;;;;4955201;29;20542;-85
2022/03/08 08:15:20;;;;;;;18.73;10.30;;;1.60;99.90;;;;;;4937290;29;20387;-85
2022/03/08 08:17:45;;;;;;;21.00;10.00;;;1.70;99.90;;;;;;4938265;29;20395;-84
2022/03/08 08:20:11;;;;;;;18.60;10.03;;;1.80;99.90;;;;;;4938427;29;20051;-85
2022/03/08 08:22:37;;;;;;;19.60;10.10;;;1.90;99.90;;;;;;4954433;29;20560;-85
2022/03/08 08:25:04;;;;;;;18.43;9.80;;;2.10;99.90;;;;;;4938260;29;20058;-84
2022/03/08 08:27:30;;;;;;;20.03;10.00;;;2.30;99.90;;;;;;4954825;28;20126;-86
2022/03/08 08:29:56;;;;;;;17.90;9.87;;;2.30;99.90;;;;;;4937365;29;20439;-86
2022/03/08 08:32:21;;;;;;;17.07;8.80;;;2.50;99.90;;;;;;4937620;29;20081;-87
2022/03/08 08:34:47;;;;;;;17.37;9.63;;;2.60;99.90;;;;;;4954480;29;20403;-86
2022/03/08 08:37:15;;;;;;;21.83;10.17;;;2.70;99.90;;;;;;4938341;29;20054;-88
2022/03/08 08:39:44;;;;;;;19.23;9.80;;;2.10;99.90;;;;;;4938565;29;20122;-91
2022/03/08 08:42:10;;;;;;;18.83;9.37;;;4.20;99.90;;;;;;4936428;29;20043;-87
2022/03/08 08:44:36;;;;;;;17.03;9.27;;;3.90;99.90;;;;;;4937533;29;20046;-86
2022/03/08 08:47:02;;;;;;;18.67;9.70;;;3.00;99.90;;;;;;4937934;29;20491;-86
2022/03/08 08:49:28;;;;;;;19.93;10.23;;;3.20;99.90;;;;;;4937361;29;20051;-86
2022/03/08 08:51:53;;;;;;;17.07;9.80;;;4.80;99.90;;;;;;4954683;29;20495;-85
2022/03/08 08:54:19;;;;;;;18.07;9.03;;;3.30;99.90;;;;;;4937249;29;20050;-87
2022/03/08 08:56:45;;;;;;;18.07;9.17;;;3.40;99.90;;;;;;4960018;29;20043;-85
2022/03/08 08:59:10;;;;;;;17.80;8.97;;;3.50;99.90;;;;;;4941947;29;20094;-85
2022/03/08 09:01:36;;;;;;;18.77;9.40;;;4.80;99.90;;;;;;4938952;29;20130;-91
2022/03/08 09:04:02;;;;;;;18.90;8.97;;;3.60;99.90;;;;;;4937214;29;20087;-87
2022/03/08 09:06:27;;;;;;;17.60;9.57;;;3.80;99.90;;;;;;4937015;29;20086;-87
2022/03/08 09:08:56;;;;;;;18.70;9.07;;;3.90;99.90;;;;;;4937932;29;20130;-87
2022/03/08 09:11:22;;;;;;;16.67;8.90;;;4.10;99.90;;;;;;4937068;29;20122;-87
2022/03/08 09:13:48;;;;;;;16.30;9.47;;;4.70;99.90;;;;;;4956883;28;20406;-86
2022/03/08 09:16:15;;;;;;;15.27;8.90;;;4.20;99.90;;;;;;4942123;29;20053;-87
2022/03/08 09:18:41;;;;;;;17.27;8.97;;;4.30;99.90;;;;;;4956581;29;20055;-88
2022/03/08 09:21:07;;;;;;;16.70;8.70;;;4.40;99.90;;;;;;4940164;29;20035;-86
2022/03/08 09:23:33;;;;;;;17.53;8.50;;;4.60;99.90;;;;;;4940941;29;20135;-86
2022/03/08 09:25:59;;;;;;;14.87;8.00;;;4.50;99.90;;;;;;4939579;29;20122;-86
2022/03/08 09:28:24;;;;;;;16.10;8.53;;;4.70;99.90;;;;;;4940152;29;20451;-86
2022/03/08 09:30:50;;;;;;;16.60;8.20;;;4.90;99.90;;;;;;4940490;29;20051;-85
2022/03/08 09:33:15;;;;;;;15.37;8.00;;;5.10;99.90;;;;;;4939466;29;20403;-85
2022/03/08 09:35:41;;;;;;;16.83;8.23;;;5.70;99.90;;;;;;4940355;29;20487;-85
2022/03/08 09:38:06;;;;;;;15.30;8.30;;;5.30;99.90;;;;;;4939226;29;20130;-85
2022/03/08 09:40:32;;;;;;;16.50;8.30;;;5.40;99.90;;;;;;4940515;29;20125;-84
2022/03/08 09:42:58;;;;;;;14.93;7.70;;;5.50;99.90;;;;;;4940180;29;20118;-85
2022/03/08 09:45:24;;;;;;;14.43;8.10;;;5.70;99.90;;;;;;4956838;29;20130;-85
2022/03/08 09:47:50;;;;;;;14.53;7.53;;;5.70;99.90;;;;;;4940789;29;20182;-86
2022/03/08 09:50:16;;;;;;;13.90;7.87;;;5.80;99.90;;;;;;4940407;29;20118;-85
2022/03/08 09:52:42;;;;;;;15.40;8.10;;;5.90;99.90;;;;;;4957114;29;20043;-86
2022/03/08 09:55:14;;;;;;;15.07;8.17;;;6.00;99.90;;;;;;4939798;29;20043;-86
2022/03/08 09:57:40;;;;;;;15.37;8.30;;;6.00;99.90;;;;;;4957305;29;20073;-86
2022/03/08 10:00:08;;;;;;;14.70;7.57;;;6.10;99.90;;;;;;4938845;29;20046;-85
2022/03/08 10:02:48;;;;;;;14.50;8.03;;;6.30;99.90;;;;;;4940093;29;20086;-85
2022/03/08 10:05:20;;;;;;;13.97;7.73;;;6.40;99.90;;;;;;4939789;29;20047;-84
2022/03/08 10:08:12;;;;;;;14.33;7.93;;;6.50;99.90;;;;;;4956425;29;20043;-83
2022/03/08 10:10:46;;;;;;;14.43;7.93;;;6.60;99.90;;;;;;4939902;29;20035;-84
2022/03/08 10:13:13;;;;;;;14.73;7.77;;;6.80;99.90;;;;;;4938699;29;20055;-83
2022/03/08 10:15:39;;;;;;;14.07;7.20;;;6.90;99.90;;;;;;4939916;29;20040;-84
2022/03/08 10:18:06;;;;;;;11.27;6.17;;;7.10;99.90;;;;;;4939645;29;20053;-85
2022/03/08 10:20:33;;;;;;;13.47;6.63;;;7.10;99.90;;;;;;4938807;29;20102;-84
2022/03/08 10:23:00;;;;;;;12.43;6.17;;;7.30;99.90;;;;;;4939893;29;20098;-84
2022/03/08 10:25:28;;;;;;;14.07;6.60;;;7.40;99.90;;;;;;4955891;28;20166;-85
2022/03/08 10:27:54;;;;;;;12.07;6.23;;;7.40;99.90;;;;;;4955861;28;20772;-84
2022/03/08 10:30:21;;;;;;;11.60;6.00;;;7.50;99.90;;;;;;4939211;29;20066;-84
2022/03/08 10:32:47;;;;;;;12.07;6.47;;;7.70;99.90;;;;;;4939254;29;20043;-84
2022/03/08 10:35:28;;;;;;;11.20;5.90;;;7.80;99.90;;;;;;4955612;29;20061;-84
2022/03/08 10:37:57;;;;;;;12.13;5.73;;;7.90;99.90;;;;;;4939759;29;20047;-84
2022/03/08 10:40:34;;;;;;;10.67;5.60;;;8.10;99.90;;;;;;4939042;29;20051;-84
2022/03/08 10:43:04;;;;;;;12.43;6.23;;;8.20;99.90;;;;;;4956968;29;20048;-88
2022/03/08 10:45:41;;;;;;;11.37;5.90;;;7.90;99.90;;;;;;4940909;29;20487;-90
2022/03/08 10:48:14;;;;;;;12.37;5.83;;;8.30;99.90;;;;;;4939420;29;20050;-88
2022/03/08 10:50:44;;;;;;;11.10;6.20;;;8.30;99.90;;;;;;4939687;29;20103;-88
2022/03/08 10:53:11;;;;;;;11.37;6.17;;;8.50;99.90;;;;;;4939333;29;20055;-88
2022/03/08 10:55:58;;;;;;;12.50;6.20;;;8.50;99.90;;;;;;4938793;29;20138;-88
2022/03/08 10:58:30;;;;;;;12.87;6.10;;;9.40;99.90;;;;;;4939152;29;20101;-88
2022/03/08 11:01:06;;;;;;;;;;;;;;;;;;;;;
2022/03/08 11:03:58;;;;;;;12.00;6.30;;;8.90;99.90;;;;;;4936852;29;20074;-88
2022/03/08 11:06:31;;;;;;;11.30;5.75;;;9.00;99.50;;;;;;4938443;29;20441;-87
2022/03/08 11:09:03;;;;;;;11.98;6.43;;;9.60;99.90;;;;;;4939285;29;20047;-89
2022/03/08 11:11:29;;;;;;;12.07;6.53;;;10.30;99.90;;;;;;4937566;29;20058;-88
2022/03/08 11:14:04;;;;;;;11.98;6.38;;;9.40;99.90;;;;;;4938496;29;20051;-88
2022/03/08 11:16:32;;;;;;;10.85;6.50;;;10.00;99.90;;;;;;4938566;29;20380;-88
2022/03/08 11:18:59;;;;;;;15.02;6.28;;;9.50;99.90;;;;;;4938841;29;20084;-89
2022/03/08 11:21:26;;;;;;;12.70;6.53;;;9.80;99.90;;;;;;4938311;29;20126;-88
2022/03/08 11:24:00;;;;;;;13.90;6.40;;;9.70;99.90;;;;;;4937099;29;20118;-89
2022/03/08 11:26:26;;;;;;;10.63;5.70;;;10.30;99.90;;;;;;4953359;28;20054;-90
2022/03/08 11:28:58;;;;;;;10.98;5.95;;;10.80;99.90;;;;;;4920668;29;20461;-86
2022/03/08 11:31:29;;;;;;;10.32;5.53;;;10.10;97.50;;;;;;4915619;29;20060;-86
2022/03/08 11:34:14;;;;;;;12.15;6.03;;;10.20;99.90;;;;;;4902171;29;20111;-87
2022/03/08 11:36:56;;;;;;;;;;;10.30;99.40;;;;;;4901052;29;20055;-87
2022/03/08 11:39:39;;;;;;;12.73;5.63;;;10.30;97.30;;;;;;4899401;29;19923;-88
2022/03/08 11:42:29;;;;;;;11.17;5.57;;;10.10;98.40;;;;;;4899824;29;20051;-87
2022/03/08 11:45:05;;;;;;;10.25;5.60;;;10.40;96.80;;;;;;4915533;29;20513;-88
2022/03/08 11:47:42;;;;;;;11.73;6.00;;;10.50;97.10;;;;;;4915940;29;20051;-87
2022/03/08 11:50:21;;;;;;;11.25;6.15;;;10.60;98.00;;;;;;4915887;29;20083;-91
2022/03/08 11:53:11;;;;;;;11.35;5.85;;;11.40;97.20;;;;;;4917659;29;20511;-87
2022/03/08 11:55:43;;;;;;;11.10;5.45;;;10.80;97.60;;;;;;4919231;29;20052;-87
2022/03/08 11:58:52;;;;;;;11.90;6.05;;;9.60;96.50;;;;;;4918797;29;20507;-88
2022/03/08 12:01:28;;;;;;;10.30;5.50;;;10.70;93.70;;;;;;4920809;29;20095;-89
2022/03/08 12:03:57;;;;;;;10.57;5.30;;;10.10;96.00;;;;;;4927088;29;20044;-89
2022/03/08 12:07:04;;;;;;;11.82;6.07;;;10.60;96.70;;;;;;4927972;29;20046;-86
2022/03/08 12:09:38;;;;;;;12.75;6.60;;;10.80;93.30;;;;;;4910742;29;20130;-87
2022/03/08 12:12:04;;;;;;;11.75;6.03;;;10.70;95.30;;;;;;4918643;29;20091;-86
2022/03/08 12:14:42;;;;;;;11.10;5.97;;;11.00;96.40;;;;;;4917232;29;20504;-87
2022/03/08 12:17:19;;;;;;;12.57;6.13;;;12.50;95.60;;;;;;4918197;29;20090;-86
2022/03/08 12:19:52;;;;;;;10.98;5.43;;;10.10;94.00;;;;;;4917190;29;20043;-86
2022/03/08 12:22:20;;;;;;;11.30;6.13;;;11.00;94.00;;;;;;4933479;29;20035;-86
2022/03/08 12:24:49;;;;;;;12.55;5.75;;;11.20;94.90;;;;;;4918184;29;20453;-86
2022/03/08 12:27:16;;;;;;;10.32;5.70;;;11.10;94.80;;;;;;4933351;28;20052;-86
2022/03/08 12:29:57;;;;;;;11.60;6.32;;;11.40;93.80;;;;;;4954088;29;20047;-86
2022/03/08 12:32:42;;;;;;;10.40;5.53;;;11.70;93.50;;;;;;4952511;29;20078;-87
2022/03/08 12:35:26;;;;;;;12.05;5.70;;;11.50;95.20;;;;;;4934950;29;20040;-86
2022/03/08 12:37:58;;;;;;;10.93;5.60;;;12.90;92.50;;;;;;4936585;29;20171;-86
2022/03/08 12:40:28;;;;;;;10.95;5.60;;;11.70;92.40;;;;;;4953697;29;20559;-86
2022/03/08 12:43:11;;;;;;;10.88;5.82;;;11.60;94.00;;;;;;4936278;29;20032;-86